createdAt,value
2023-04-20T00:00:42.513Z,9.11
2023-04-20T00:02:07.771Z,9.22
2023-04-20T00:03:30.214Z,9.20
2023-04-20T00:04:52.019Z,9.21
2023-04-20T00:06:16.287Z,9.23
2023-04-20T00:07:38.761Z,9.23
2023-04-20T00:09:00.223Z,9.21
2023-04-20T00:10:22.401Z,9.23
2023-04-20T00:11:43.537Z,9.20
2023-04-20T00:13:07.113Z,9.16
2023-04-20T00:14:31.950Z,9.23
2023-04-20T00:15:54.079Z,9.24
2023-04-20T00:17:19.117Z,9.24
2023-04-20T00:18:40.752Z,9.24
2023-04-20T00:20:05.304Z,9.23
2023-04-20T00:21:27.312Z,9.22
2023-04-20T00:22:49.333Z,9.26
2023-04-20T00:24:11.685Z,9.28
2023-04-20T00:25:32.817Z,9.28
2023-04-20T00:26:55.826Z,9.29
2023-04-20T00:28:18.862Z,9.27
2023-04-20T00:29:41.609Z,9.25
2023-04-20T00:31:02.718Z,9.30
2023-04-20T00:32:28.729Z,9.28
2023-04-20T00:33:50.225Z,9.27
2023-04-20T00:35:12.619Z,9.26
2023-04-20T00:36:33.592Z,9.24
2023-04-20T00:37:57.838Z,9.21
2023-04-20T00:39:20.069Z,9.17
2023-04-20T00:40:53.173Z,9.16
2023-04-20T00:42:15.475Z,9.15
2023-04-20T00:43:38.172Z,9.13
2023-04-20T00:45:01.842Z,9.11
2023-04-20T00:46:27.456Z,9.11
2023-04-20T00:47:50.339Z,9.09
2023-04-20T00:49:11.972Z,9.01
2023-04-20T00:50:34.883Z,9.07
2023-04-20T00:51:57.386Z,9.08
2023-04-20T00:53:20.813Z,9.04
2023-04-20T00:54:45.823Z,9.05
2023-04-20T00:56:09.039Z,9.08
2023-04-20T00:57:31.390Z,9.08
2023-04-20T00:59:00.713Z,9.05
2023-04-20T01:00:26.321Z,9.08
2023-04-20T01:01:47.547Z,9.02
2023-04-20T01:03:10.961Z,9.03
2023-04-20T01:04:35.198Z,9.05
2023-04-20T01:05:57.855Z,9.04
2023-04-20T01:07:20.056Z,9.03
2023-04-20T01:08:49.223Z,9.03
2023-04-20T01:10:10.802Z,9.03
2023-04-20T01:11:34.899Z,8.97
2023-04-20T01:12:56.130Z,8.99
2023-04-20T01:14:19.956Z,9.01
2023-04-20T01:15:41.416Z,8.97
2023-04-20T01:17:06.366Z,8.99
2023-04-20T01:18:27.895Z,8.98
2023-04-20T01:19:52.201Z,8.93
2023-04-20T01:21:14.484Z,8.98
2023-04-20T01:22:45.420Z,8.92
2023-04-20T01:24:12.953Z,8.95
2023-04-20T01:25:40.344Z,8.94
2023-04-20T01:27:02.986Z,8.83
2023-04-20T01:28:29.801Z,8.87
2023-04-20T01:29:51.186Z,8.82
2023-04-20T01:31:14.362Z,8.88
2023-04-20T01:32:37.126Z,8.88
2023-04-20T01:33:59.954Z,8.86
2023-04-20T01:35:21.667Z,8.79
2023-04-20T01:36:43.901Z,8.86
2023-04-20T01:38:10.560Z,8.81
2023-04-20T01:39:35.589Z,8.83
2023-04-20T01:40:59.274Z,8.82
2023-04-20T01:42:22.990Z,8.82
2023-04-20T01:43:45.512Z,8.81
2023-04-20T01:45:08.957Z,8.80
2023-04-20T01:46:35.820Z,8.72
2023-04-20T01:47:58.225Z,8.79
2023-04-20T01:49:24.057Z,8.73
2023-04-20T01:50:46.432Z,8.69
2023-04-20T01:52:11.931Z,8.78
2023-04-20T01:53:36.248Z,8.78
2023-04-20T01:54:57.260Z,8.79
2023-04-20T01:56:19.987Z,8.77
2023-04-20T01:57:40.964Z,8.79
2023-04-20T01:59:03.588Z,8.75
2023-04-20T02:00:25.553Z,8.72
2023-04-20T02:01:50.685Z,8.79
2023-04-20T02:03:12.593Z,8.72
2023-04-20T02:04:35.004Z,8.78
2023-04-20T02:05:57.712Z,8.79
2023-04-20T02:07:27.040Z,8.75
2023-04-20T02:08:51.145Z,8.76
2023-04-20T02:10:15.284Z,8.80
2023-04-20T02:11:40.646Z,8.72
2023-04-20T02:13:04.419Z,8.75
2023-04-20T02:14:27.559Z,8.78
2023-04-20T02:15:49.826Z,8.71
2023-04-20T02:17:11.737Z,8.75
2023-04-20T02:18:36.289Z,8.77
2023-04-20T02:19:58.143Z,8.78
2023-04-20T02:21:23.387Z,8.78
2023-04-20T02:22:46.062Z,8.72
2023-04-20T02:24:09.670Z,8.73
2023-04-20T02:25:31.144Z,8.75
2023-04-20T02:26:59.209Z,8.75
2023-04-20T02:28:22.638Z,8.73
2023-04-20T02:29:45.221Z,8.67
2023-04-20T02:31:09.923Z,8.70
2023-04-20T02:32:37.418Z,8.69
2023-04-20T02:34:29.936Z,8.66
2023-04-20T02:36:00.320Z,8.59
2023-04-20T02:37:34.748Z,8.58
2023-04-20T02:38:57.361Z,8.66
2023-04-20T02:40:57.257Z,8.54
2023-04-20T02:42:28.106Z,8.56
2023-04-20T02:43:54.640Z,8.51
2023-04-20T02:45:18.899Z,8.58
2023-04-20T02:46:48.855Z,8.54
2023-04-20T02:50:32.513Z,8.46
2023-04-20T02:54:44.256Z,8.48
2023-04-20T02:56:40.823Z,8.55
2023-04-20T02:58:05.024Z,8.48
2023-04-20T02:59:50.014Z,8.51
2023-04-20T03:01:37.568Z,8.50
2023-04-20T03:03:06.937Z,8.52
2023-04-20T03:04:32.140Z,8.58
2023-04-20T03:06:00.425Z,8.60
2023-04-20T03:07:23.197Z,8.62
2023-04-20T03:08:46.978Z,8.63
2023-04-20T03:10:38.261Z,8.63
2023-04-20T03:12:11.023Z,8.67
2023-04-20T03:13:54.800Z,8.69
2023-04-20T03:15:17.317Z,8.66
2023-04-20T03:16:59.921Z,8.74
2023-04-20T03:18:21.438Z,8.71
2023-04-20T03:19:44.442Z,8.77
2023-04-20T03:21:07.502Z,8.75
2023-04-20T03:22:28.601Z,8.78
2023-04-20T03:23:54.015Z,8.72
2023-04-20T03:25:16.857Z,8.80
2023-04-20T03:26:47.732Z,8.79
2023-04-20T03:28:14.435Z,8.75
2023-04-20T03:29:37.276Z,8.85
2023-04-20T03:31:48.437Z,8.84
2023-04-20T03:39:25.176Z,8.75
2023-04-20T03:43:23.318Z,8.81
2023-04-20T03:45:40.216Z,8.79
2023-04-20T03:58:31.374Z,8.71
2023-04-20T04:00:15.843Z,8.77
2023-04-20T04:01:47.827Z,8.73
2023-04-20T04:03:12.816Z,8.82
2023-04-20T04:04:36.324Z,8.80
2023-04-20T04:06:04.224Z,8.81
2023-04-20T04:07:50.940Z,8.86
2023-04-20T04:10:23.384Z,8.88
2023-04-20T04:12:13.204Z,8.87
2023-04-20T04:13:53.615Z,8.89
2023-04-20T04:15:39.132Z,8.89
2023-04-20T04:17:30.918Z,8.95
2023-04-20T04:18:54.743Z,9.01
2023-04-20T04:20:54.171Z,9.02
2023-04-20T04:23:01.043Z,9.06
2023-04-20T04:24:29.386Z,9.13
2023-04-20T04:26:02.134Z,9.19
2023-04-20T04:27:35.117Z,9.23
2023-04-20T04:29:03.192Z,9.24
2023-04-20T04:30:30.909Z,9.34
2023-04-20T04:32:12.221Z,9.30
2023-04-20T06:02:15.464Z,10.18
2023-04-20T06:04:16.333Z,10.22
2023-04-20T06:07:39.940Z,10.22
2023-04-20T06:10:00.312Z,10.18
2023-04-20T06:13:27.862Z,10.26
2023-04-20T06:15:05.919Z,10.19
2023-04-20T06:17:13.355Z,10.25
2023-04-20T06:18:56.191Z,10.21
2023-04-20T06:21:02.920Z,10.26
2023-04-20T06:22:54.856Z,10.37
2023-04-20T06:24:25.123Z,10.35
2023-04-20T06:26:16.549Z,10.43
2023-04-20T06:27:51.331Z,10.46
2023-04-20T06:30:12.702Z,10.63
2023-04-20T06:31:35.230Z,10.60
2023-04-20T06:33:54.145Z,10.61
2023-04-20T06:35:57.746Z,10.76
2023-04-20T06:37:36.071Z,10.74
2023-04-20T06:39:19.736Z,10.75
2023-04-20T06:41:15.560Z,10.78
2023-04-20T06:42:42.416Z,10.94
2023-04-20T06:44:51.017Z,10.97
2023-04-20T06:46:15.412Z,11.05
2023-04-20T06:47:41.516Z,11.12
2023-04-20T06:49:31.474Z,11.14
2023-04-20T06:51:10.392Z,11.19
2023-04-20T06:52:53.424Z,11.31
2023-04-20T06:54:15.861Z,11.43
2023-04-20T06:55:38.364Z,11.49
2023-04-20T06:57:06.639Z,11.58
2023-04-20T06:58:29.071Z,11.72
2023-04-20T06:59:54.004Z,11.74
2023-04-20T07:01:22.171Z,11.89
2023-04-20T07:02:48.648Z,11.91
2023-04-20T07:04:11.427Z,12.00
2023-04-20T07:05:36.371Z,12.14
2023-04-20T07:07:02.414Z,12.22
2023-04-20T07:08:24.737Z,12.28
2023-04-20T07:09:46.043Z,12.44
2023-04-20T07:11:14.478Z,12.49
2023-04-20T07:14:44.704Z,12.55
2023-04-20T07:15:31.786Z,12.56
2023-04-20T07:20:42.998Z,12.67
2023-04-20T07:37:39.034Z,13.20
2023-04-20T07:39:05.535Z,13.24
2023-04-20T07:49:29.752Z,13.50
2023-04-20T07:54:51.642Z,13.54
2023-04-20T07:57:22.529Z,13.44
2023-04-20T08:48:37.933Z,14.85
2023-04-20T08:50:42.289Z,14.97
2023-04-20T08:52:24.004Z,15.11
2023-04-20T09:10:01.203Z,17.07
2023-04-20T09:12:09.071Z,17.07
2023-04-20T09:16:14.304Z,17.08
2023-04-20T09:17:43.108Z,17.03
2023-04-20T10:03:05.907Z,32.54
2023-04-20T10:05:44.412Z,33.85
2023-04-20T10:08:22.788Z,35.31
2023-04-20T10:10:40.024Z,35.83
2023-04-20T10:13:13.336Z,35.32
2023-04-20T10:15:00.995Z,33.15
2023-04-20T10:16:35.610Z,32.57
2023-04-20T10:18:25.642Z,32.01
2023-04-20T10:20:36.042Z,30.40
2023-04-20T10:22:08.774Z,29.70
2023-04-20T10:23:52.946Z,28.87
2023-04-20T10:25:28.221Z,28.27
2023-04-20T10:26:50.769Z,27.60
2023-04-20T10:28:44.817Z,26.73
2023-04-20T10:30:24.648Z,26.00
2023-04-20T10:31:47.238Z,25.57
2023-04-20T10:36:39.916Z,24.17
2023-04-20T10:38:05.159Z,23.88
2023-04-20T10:39:33.041Z,23.79
2023-04-20T10:40:58.206Z,23.74
2023-04-20T10:42:20.486Z,23.85
2023-04-20T10:43:44.347Z,23.89
2023-04-20T10:45:11.254Z,23.90
2023-04-20T10:46:36.560Z,23.90
2023-04-20T10:48:02.980Z,23.92
2023-04-20T10:49:29.069Z,23.81
2023-04-20T10:50:51.463Z,23.81
2023-04-20T10:52:13.857Z,23.75
2023-04-20T10:53:42.940Z,23.66
2023-04-20T10:55:47.770Z,23.52
2023-04-20T10:57:26.952Z,23.37
2023-04-20T11:07:33.583Z,23.11
2023-04-20T11:09:05.401Z,23.11
2023-04-20T11:11:01.180Z,23.18
2023-04-20T11:19:21.614Z,22.55
2023-04-20T11:23:27.642Z,22.04
2023-04-20T11:37:12.525Z,20.01
2023-04-20T11:39:12.249Z,19.78
2023-04-20T11:41:17.586Z,19.54
2023-04-20T11:42:53.690Z,19.41
2023-04-20T11:44:22.417Z,19.33
2023-04-20T11:46:24.768Z,19.24
2023-04-20T11:47:58.221Z,19.14
2023-04-20T11:52:40.478Z,18.94
2023-04-20T11:54:03.026Z,18.99
2023-04-20T11:56:50.269Z,19.01
2023-04-20T11:58:17.805Z,18.93
2023-04-20T12:00:12.177Z,18.83
2023-04-20T12:01:37.713Z,18.78
2023-04-20T12:03:00.255Z,18.82
2023-04-20T12:04:23.406Z,18.79
2023-04-20T12:05:46.241Z,18.73
2023-04-20T12:12:31.527Z,19.20
2023-04-20T12:16:56.736Z,19.04
2023-04-20T12:18:41.116Z,18.94
2023-04-20T12:20:09.064Z,18.89
2023-04-20T12:21:45.273Z,19.01
2023-04-20T12:23:07.491Z,19.07
2023-04-20T12:24:42.950Z,19.08
2023-04-20T12:26:53.244Z,19.34
2023-04-20T12:29:07.459Z,19.73
2023-04-20T12:31:36.329Z,19.96
2023-04-20T12:32:58.973Z,19.84
2023-04-20T12:34:21.722Z,19.90
2023-04-20T12:36:13.140Z,19.73
2023-04-20T12:38:55.173Z,19.61
2023-04-20T12:40:19.015Z,19.69
2023-04-20T12:41:46.056Z,19.71
2023-04-20T12:44:09.960Z,19.68
2023-04-20T12:45:34.472Z,19.59
2023-04-20T12:47:01.606Z,19.52
2023-04-20T12:49:02.700Z,19.55
2023-04-20T12:50:39.461Z,19.62
2023-04-20T12:53:02.617Z,19.53
2023-04-20T12:54:44.841Z,19.72
2023-04-20T12:56:57.014Z,19.73
2023-04-20T12:59:30.079Z,19.73
2023-04-20T13:01:20.695Z,19.90
2023-04-20T13:08:09.575Z,19.76
2023-04-20T13:13:00.899Z,19.46
2023-04-20T13:14:40.499Z,19.24
2023-04-20T13:16:18.033Z,19.19
2023-04-20T13:17:44.733Z,19.30
2023-04-20T13:19:54.182Z,19.32
2023-04-20T13:24:54.001Z,19.31
2023-04-20T13:26:46.428Z,19.49
2023-04-20T13:28:22.057Z,19.59
2023-04-20T13:30:06.647Z,19.76
2023-04-20T13:31:38.368Z,19.81
2023-04-20T13:33:00.895Z,19.93
2023-04-20T13:34:27.592Z,20.07
2023-04-20T13:36:06.843Z,20.12
2023-04-20T13:37:33.796Z,20.25
2023-04-20T13:42:40.205Z,20.21
2023-04-20T13:44:08.071Z,20.16
2023-04-20T13:49:23.986Z,20.09
2023-04-20T13:54:10.354Z,19.96
2023-04-20T13:58:53.840Z,20.00
2023-04-20T14:00:19.483Z,19.98
2023-04-20T14:32:06.445Z,19.71
2023-04-20T14:37:05.117Z,19.53
2023-04-20T14:38:33.605Z,19.38
2023-04-20T14:42:50.157Z,19.14
2023-04-20T14:47:32.059Z,18.98
2023-04-20T14:49:04.555Z,18.93
2023-04-20T14:50:38.994Z,18.97
2023-04-20T14:52:02.456Z,18.90
2023-04-20T14:53:24.853Z,18.88
2023-04-20T14:54:48.592Z,18.79
2023-04-20T14:56:14.320Z,18.88
2023-04-20T14:57:39.183Z,18.83
2023-04-20T14:59:04.197Z,18.75
2023-04-20T15:00:31.124Z,18.61
2023-04-20T15:02:03.093Z,18.56
2023-04-20T15:04:01.496Z,18.44
2023-04-20T15:05:28.431Z,18.36
2023-04-20T15:06:58.325Z,18.22
2023-04-20T15:08:34.229Z,18.17
2023-04-20T15:10:06.539Z,18.07
2023-04-20T15:11:32.048Z,17.98
2023-04-20T15:12:54.585Z,17.88
2023-04-20T15:14:35.813Z,17.86
2023-04-20T15:15:58.156Z,17.83
2023-04-20T15:19:03.842Z,17.64
2023-04-20T15:20:31.273Z,17.64
2023-04-20T15:21:56.557Z,17.61
2023-04-20T15:23:23.623Z,17.59
2023-04-20T15:24:46.338Z,17.55
2023-04-20T15:26:10.543Z,17.51
2023-04-20T15:27:33.286Z,17.46
2023-04-20T15:28:56.786Z,17.47
2023-04-20T15:30:22.356Z,17.39
2023-04-20T15:31:45.660Z,17.42
2023-04-20T15:33:08.368Z,17.44
2023-04-20T15:34:30.056Z,17.41
2023-04-20T15:35:57.965Z,17.40
2023-04-20T15:37:20.729Z,17.37
2023-04-20T15:38:42.948Z,17.30
2023-04-20T15:40:07.833Z,17.35
2023-04-20T15:41:47.216Z,17.36
2023-04-20T15:43:26.813Z,17.28
2023-04-20T15:44:52.017Z,17.26
2023-04-20T15:46:18.395Z,17.32
2023-04-20T15:47:44.247Z,17.37
2023-04-20T15:49:43.765Z,17.38
2023-04-20T15:51:16.282Z,17.28
2023-04-20T15:52:51.766Z,17.34
2023-04-20T15:54:17.153Z,17.31
2023-04-20T15:55:45.737Z,17.29
2023-04-20T15:57:07.427Z,17.24
2023-04-20T15:58:31.455Z,17.17
2023-04-20T15:59:54.217Z,17.15
2023-04-20T16:01:26.088Z,17.14
2023-04-20T16:02:49.986Z,17.11
2023-04-20T16:04:18.066Z,17.13
2023-04-20T16:05:40.982Z,17.12
2023-04-20T16:07:02.964Z,17.09
2023-04-20T16:08:25.219Z,17.06
2023-04-20T16:09:49.072Z,17.02
2023-04-20T16:11:11.373Z,17.02
2023-04-20T16:12:36.537Z,16.98
2023-04-20T16:13:58.731Z,16.97
2023-04-20T16:15:20.346Z,16.96
2023-04-20T16:16:43.655Z,16.93
2023-04-20T16:18:06.303Z,16.91
2023-04-20T16:19:28.860Z,16.89
2023-04-20T16:20:56.053Z,16.87
2023-04-20T16:22:18.466Z,16.79
2023-04-20T16:23:41.040Z,16.82
2023-04-20T16:25:03.735Z,16.79
2023-04-20T16:26:28.827Z,16.75
2023-04-20T16:27:50.341Z,16.74
2023-04-20T16:29:12.410Z,16.72
2023-04-20T16:30:37.121Z,16.67
2023-04-20T16:32:04.137Z,16.57
2023-04-20T16:33:30.565Z,16.59
2023-04-20T16:35:00.263Z,16.52
2023-04-20T16:36:27.442Z,16.51
2023-04-20T16:37:56.314Z,16.50
2023-04-20T16:39:19.523Z,16.43
2023-04-20T16:40:45.786Z,16.48
2023-04-20T16:42:10.045Z,16.43
2023-04-20T16:43:32.479Z,16.38
2023-04-20T16:44:58.311Z,16.31
2023-04-20T16:46:22.629Z,16.36
2023-04-20T16:47:52.040Z,16.33
2023-04-20T16:49:14.046Z,16.27
2023-04-20T16:50:40.290Z,16.25
2023-04-20T16:52:04.380Z,16.24
2023-04-20T16:53:32.947Z,16.11
2023-04-20T16:54:57.547Z,16.13
2023-04-20T16:56:27.256Z,16.13
2023-04-20T16:57:49.410Z,16.05
2023-04-20T16:59:28.390Z,16.02
2023-04-20T17:00:57.547Z,15.90
2023-04-20T17:02:30.667Z,15.93
2023-04-20T17:04:02.570Z,15.83
2023-04-20T17:05:25.424Z,15.80
2023-04-20T17:07:46.910Z,15.79
2023-04-20T17:09:32.657Z,15.64
2023-04-20T17:11:42.834Z,15.58
2023-04-20T17:23:17.558Z,15.23
2023-04-20T17:24:44.150Z,15.12
2023-04-20T17:26:29.763Z,15.05
2023-04-20T17:28:00.231Z,14.98
2023-04-20T17:29:38.370Z,14.95
2023-04-20T17:31:00.524Z,14.98
2023-04-20T17:32:22.173Z,14.95
2023-04-20T17:33:47.167Z,14.87
2023-04-20T17:35:12.428Z,14.89
2023-04-20T17:36:35.033Z,14.87
2023-04-20T17:37:57.293Z,14.85
2023-04-20T17:39:20.517Z,14.80
2023-04-20T17:40:46.871Z,14.79
2023-04-20T17:42:15.498Z,14.74
2023-04-20T17:43:40.559Z,14.73
2023-04-20T17:45:06.703Z,14.70
2023-04-20T17:46:32.494Z,14.61
2023-04-20T17:47:57.114Z,14.59
2023-04-20T17:49:51.898Z,14.61
2023-04-20T17:51:37.863Z,14.54
2023-04-20T17:53:14.438Z,14.52
2023-04-20T17:55:30.728Z,14.51
2023-04-20T18:02:14.150Z,14.46
2023-04-20T18:03:39.248Z,14.45
2023-04-20T18:05:01.555Z,14.44
2023-04-20T18:06:26.720Z,14.42
2023-04-20T18:07:55.149Z,14.35
2023-04-20T18:09:25.746Z,14.41
2023-04-20T18:10:48.581Z,14.34
2023-04-20T18:12:11.579Z,14.36
2023-04-20T18:13:33.625Z,14.37
2023-04-20T18:14:57.615Z,14.36
2023-04-20T18:16:21.623Z,14.27
2023-04-20T18:17:48.412Z,14.33
2023-04-20T18:19:10.689Z,14.31
2023-04-20T18:20:33.074Z,14.28
2023-04-20T18:22:27.474Z,14.23
2023-04-20T18:30:03.389Z,14.00
2023-04-20T18:31:30.886Z,14.04
2023-04-20T18:32:53.884Z,14.03
2023-04-20T18:34:18.320Z,14.04
2023-04-20T18:36:02.454Z,14.02
2023-04-20T18:37:35.747Z,14.00
2023-04-20T18:39:43.263Z,13.99
2023-04-20T18:41:09.764Z,13.94
2023-04-20T18:43:28.866Z,13.94
2023-04-20T18:45:30.765Z,13.83
2023-04-20T18:50:34.121Z,13.68
2023-04-20T18:52:11.528Z,13.66
2023-04-20T18:53:46.636Z,13.71
2023-04-20T18:55:20.982Z,13.63
2023-04-20T18:57:13.223Z,13.62
2023-04-20T18:59:15.048Z,13.60
2023-04-20T19:01:07.787Z,13.54
2023-04-20T19:03:08.128Z,13.45
2023-04-20T19:04:36.367Z,13.52
2023-04-20T19:05:58.187Z,13.51
2023-04-20T19:07:20.722Z,13.48
2023-04-20T19:08:42.692Z,13.47
2023-04-20T19:10:05.698Z,13.46
2023-04-20T19:11:32.941Z,13.43
2023-04-20T19:12:59.449Z,13.44
2023-04-20T19:14:30.967Z,13.43
2023-04-20T19:15:58.381Z,13.41
2023-04-20T19:17:20.792Z,13.38
2023-04-20T19:22:08.632Z,13.30
2023-04-20T19:24:10.731Z,13.24
2023-04-20T19:25:56.898Z,13.26
2023-04-20T19:28:09.722Z,13.22
2023-04-20T19:29:41.961Z,13.21
2023-04-20T19:31:08.520Z,13.11
2023-04-20T19:32:36.796Z,13.18
2023-04-20T19:34:09.853Z,13.14
2023-04-20T19:35:41.274Z,13.11
2023-04-20T19:38:03.491Z,13.13
2023-04-20T19:40:07.255Z,13.08
2023-04-20T19:41:49.598Z,12.99
2023-04-20T19:43:27.955Z,12.96
2023-04-20T19:48:25.514Z,12.89
2023-04-20T19:49:55.185Z,12.92
2023-04-20T20:42:13.148Z,12.13
2023-04-20T20:44:54.575Z,12.13
2023-04-20T20:46:45.656Z,12.22
2023-04-20T20:49:20.213Z,12.21
2023-04-20T20:51:27.813Z,12.21
2023-04-20T20:54:05.532Z,12.17
2023-04-20T20:56:33.750Z,12.13
2023-04-20T20:58:46.672Z,12.20
2023-04-20T21:00:19.628Z,12.10
2023-04-20T21:02:20.150Z,12.20
2023-04-20T21:04:13.674Z,12.18
2023-04-20T21:06:08.631Z,12.10
2023-04-20T21:07:48.240Z,12.17
2023-04-20T21:09:25.263Z,12.15
2023-04-20T21:10:51.909Z,12.06
2023-04-20T21:12:14.273Z,12.16
2023-04-20T21:13:41.429Z,12.09
2023-04-20T21:15:07.648Z,12.16
2023-04-20T21:16:30.416Z,12.16
2023-04-20T21:17:52.793Z,12.16
2023-04-20T21:19:14.836Z,12.11
2023-04-20T21:20:43.546Z,12.13
2023-04-20T21:22:05.747Z,12.12
2023-04-20T21:23:46.734Z,12.08
2023-04-20T21:25:24.608Z,12.06
2023-04-20T21:32:25.864Z,12.01
2023-04-20T21:33:48.599Z,11.91
2023-04-20T21:35:11.718Z,11.94
2023-04-20T21:36:34.379Z,11.96
2023-04-20T21:37:58.568Z,11.96
2023-04-20T21:39:21.114Z,11.90
2023-04-20T21:40:43.679Z,11.99
2023-04-20T21:42:11.566Z,11.91
2023-04-20T21:43:34.139Z,11.93
2023-04-20T21:45:02.917Z,11.95
2023-04-20T21:46:25.327Z,11.90
2023-04-20T21:47:51.568Z,11.95
2023-04-20T21:49:22.875Z,11.95
2023-04-20T21:50:47.952Z,11.91
2023-04-20T21:52:18.590Z,11.96
2023-04-20T21:53:41.322Z,11.88
2023-04-20T21:55:03.845Z,11.95
2023-04-20T21:56:58.798Z,11.92
2023-04-20T21:58:21.090Z,11.89
2023-04-20T21:59:46.188Z,11.83
2023-04-20T22:01:08.021Z,11.92
2023-04-20T22:02:31.952Z,11.87
2023-04-20T22:03:55.415Z,11.87
2023-04-20T22:05:21.947Z,11.86
2023-04-20T22:06:43.129Z,11.78
2023-04-20T22:08:10.089Z,11.83
2023-04-20T22:09:35.191Z,11.76
2023-04-20T22:10:58.511Z,11.75
2023-04-20T22:12:36.301Z,11.79
2023-04-20T22:14:09.357Z,11.80
2023-04-20T22:15:33.252Z,11.79
2023-04-20T22:16:54.846Z,11.78
2023-04-20T22:18:26.268Z,11.78
2023-04-20T22:19:49.962Z,11.72
2023-04-20T22:21:16.743Z,11.73
2023-04-20T22:22:57.344Z,11.70
2023-04-20T22:24:22.101Z,11.68
2023-04-20T22:25:46.462Z,11.70
2023-04-20T22:27:12.254Z,11.75
2023-04-20T22:28:34.803Z,11.74
2023-04-20T22:29:58.675Z,11.68
2023-04-20T22:31:21.208Z,11.72
2023-04-20T22:32:47.615Z,11.71
2023-04-20T22:34:18.457Z,11.71
2023-04-20T22:35:48.692Z,11.66
2023-04-20T22:37:11.999Z,11.61
2023-04-20T22:38:46.500Z,11.68
2023-04-20T22:40:09.149Z,11.63
2023-04-20T22:41:34.905Z,11.66
2023-04-20T22:42:56.206Z,11.65
2023-04-20T22:44:18.178Z,11.59
2023-04-20T22:45:40.262Z,11.63
2023-04-20T22:47:01.496Z,11.63
2023-04-20T22:48:23.597Z,11.61
2023-04-20T22:49:50.501Z,11.60
2023-04-20T22:51:14.034Z,11.61
2023-04-20T22:52:38.033Z,11.59
2023-04-20T22:54:02.876Z,11.60
2023-04-20T22:55:24.940Z,11.57
2023-04-20T22:56:46.375Z,11.57
2023-04-20T22:58:10.075Z,11.56
2023-04-20T22:59:32.227Z,11.54
2023-04-20T23:00:56.877Z,11.55
2023-04-20T23:02:22.045Z,11.55
2023-04-20T23:03:44.426Z,11.54
2023-04-20T23:05:07.087Z,11.54
2023-04-20T23:06:31.750Z,11.49
2023-04-20T23:07:56.910Z,11.47
2023-04-20T23:09:20.791Z,11.49
2023-04-20T23:10:47.347Z,11.47
2023-04-20T23:12:10.512Z,11.47
2023-04-20T23:13:33.400Z,11.45
2023-04-20T23:14:55.087Z,11.44
2023-04-20T23:16:17.603Z,11.41
2023-04-20T23:17:39.485Z,11.38
2023-04-20T23:19:01.886Z,11.42
2023-04-20T23:20:23.306Z,11.39
2023-04-20T23:21:47.289Z,11.37
2023-04-20T23:23:20.512Z,11.38
2023-04-20T23:24:43.289Z,11.31
2023-04-20T23:26:05.371Z,11.37
2023-04-20T23:27:27.125Z,11.36
2023-04-20T23:28:51.662Z,11.34
2023-04-20T23:30:16.909Z,11.33
2023-04-20T23:31:39.407Z,11.34
2023-04-20T23:33:04.982Z,11.30
2023-04-20T23:34:26.471Z,11.23
2023-04-20T23:35:50.453Z,11.29
2023-04-20T23:37:17.187Z,11.28
2023-04-20T23:38:38.662Z,11.20
2023-04-20T23:40:01.246Z,11.27
2023-04-20T23:41:23.501Z,11.25
2023-04-20T23:42:44.566Z,11.20
2023-04-20T23:44:07.074Z,11.20
2023-04-20T23:45:29.466Z,11.12
2023-04-20T23:46:52.545Z,11.20
2023-04-20T23:48:14.849Z,11.14
2023-04-20T23:49:39.311Z,11.16
2023-04-20T23:51:01.976Z,11.10
2023-04-20T23:52:25.964Z,11.07
2023-04-20T23:53:48.468Z,11.08
2023-04-20T23:55:10.728Z,11.12
2023-04-20T23:56:34.689Z,11.10
2023-04-20T23:57:58.529Z,11.11
